Etusivu
METAR-TAF:

METAR-TAF

Lentoasemat :

Toulon, Ranska

Leveyspiiri: 43-06N, Pituuspiiri: 006-09E, korkeus merenpinnasta: 3 m

Tämänhetkinen sää

Tämä raportti tehtiin 26 minuuttia sitten, kello 21.30 UTC
Tuuli 2 kn pohjoisesta
Lämpötila 24°C
Kosteus 65%
Ilmanpaine 1010 hPa
Näkyvyys 10 km tai enemmän
heikkoa sadetta

METAR: LFTH 222130Z AUTO 35002KT 9999 -RA ///CB 24/17 Q1010 TEMPO SHRA BECMG NSC

Aika: 23:56 (21:56 UTC)

Sääennuste

Tämä raportti tehtiin 1 tunti ja 56 minuuttia sitten, kello 20.00 UTC
Ennuste voimassa 22. päivästä klo 21 UTC - 23. päivään klo 21 UTC
Tuuli 4 kn eri suunnista
Näkyvyys 10 km tai enemmän
ei pilviä alle 1500 m:ssä eikä cumulonimbus-pilviä
Todennäköisyys 40% :
Ajoittain
22. päivästä klo 21 UTC - 22. päivään klo 23 UTC
Hajonneita pilviä 4000 ft:n korkeudessa, Kasvava cumulus-pilvi.
vesikuuroja

TAF: LFTH 222000Z 2221/2321 VRB04KT CAVOK PROB40 TEMPO 2221/2223 SHRA BKN040TCU

Säähavainnot ja -ennusteet yli 4000 lentoasemalta (METAR- ja TAF-raportit).

Käytössä olevat sääasemat on merkitty karttaan keltaisilla ja punaisilla pisteillä.

Aseta hiiri pisteen päälle nähdäksesi sääaseman nimen.

Klikkaa sitten nähdäksesi säähavainnot ja -ennusteet.

Kartan vaihtaminen: klikkaa mustalla rastilla varustettuja vihreitä pisteitä, niin voit zoomata sisään; viivalla varustettua vihreää pistettä, niin voit zoomata ulos tai vihreitä nuolia, niin pääset viereisille kartoille.


METAR-TAF: